sensor_id;sensor_type;location;lat;lon;timestamp;pressure;altitude;pressure_sealevel;temperature;humidity
50302;BME280;36550;50.472;19.744;2023-03-04T00:02:12;98045.23;;;-0.17;81.12
50302;BME280;36550;50.472;19.744;2023-03-04T00:04:57;98044.47;;;-0.20;80.97
50302;BME280;36550;50.472;19.744;2023-03-04T00:08:02;98037.27;;;-0.18;81.01
50302;BME280;36550;50.472;19.744;2023-03-04T00:10:47;98034.86;;;-0.20;81.05
50302;BME280;36550;50.472;19.744;2023-03-04T00:13:38;98029.38;;;-0.21;81.03
50302;BME280;36550;50.472;19.744;2023-03-04T00:16:25;98015.08;;;-0.26;81.06
50302;BME280;36550;50.472;19.744;2023-03-04T00:19:12;98010.02;;;-0.30;81.12
50302;BME280;36550;50.472;19.744;2023-03-04T00:21:56;98010.55;;;-0.32;81.10
50302;BME280;36550;50.472;19.744;2023-03-04T00:24:40;98003.52;;;-0.34;81.20
50302;BME280;36550;50.472;19.744;2023-03-04T00:27:47;97995.58;;;-0.33;81.49
50302;BME280;36550;50.472;19.744;2023-03-04T00:30:31;97990.98;;;-0.32;81.43
50302;BME280;36550;50.472;19.744;2023-03-04T00:33:56;97985.95;;;-0.28;81.38
50302;BME280;36550;50.472;19.744;2023-03-04T00:36:40;97980.06;;;-0.27;81.52
50302;BME280;36550;50.472;19.744;2023-03-04T00:39:46;97978.91;;;-0.27;81.53
50302;BME280;36550;50.472;19.744;2023-03-04T00:42:31;97974.67;;;-0.26;81.70
50302;BME280;36550;50.472;19.744;2023-03-04T00:45:14;97969.99;;;-0.26;81.79
50302;BME280;36550;50.472;19.744;2023-03-04T00:48:05;97965.80;;;-0.25;82.01
50302;BME280;36550;50.472;19.744;2023-03-04T00:50:51;97965.84;;;-0.24;81.86
50302;BME280;36550;50.472;19.744;2023-03-04T00:53:37;97957.55;;;-0.22;81.58
50302;BME280;36550;50.472;19.744;2023-03-04T00:56:22;97947.40;;;-0.20;81.63
50302;BME280;36550;50.472;19.744;2023-03-04T00:59:07;97946.77;;;-0.19;81.73
50302;BME280;36550;50.472;19.744;2023-03-04T01:01:56;97942.14;;;-0.17;81.77
50302;BME280;36550;50.472;19.744;2023-03-04T01:04:45;97940.88;;;-0.17;82.03
50302;BME280;36550;50.472;19.744;2023-03-04T01:07:33;97936.78;;;-0.17;82.04
50302;BME280;36550;50.472;19.744;2023-03-04T01:10:17;97936.32;;;-0.14;82.11
50302;BME280;36550;50.472;19.744;2023-03-04T01:13:05;97926.66;;;-0.11;82.04
50302;BME280;36550;50.472;19.744;2023-03-04T01:15:51;97925.16;;;-0.09;82.04
50302;BME280;36550;50.472;19.744;2023-03-04T01:18:36;97918.13;;;-0.07;82.06
50302;BME280;36550;50.472;19.744;2023-03-04T01:21:41;97915.48;;;-0.07;82.11
50302;BME280;36550;50.472;19.744;2023-03-04T01:24:26;97912.53;;;-0.09;82.18
50302;BME280;36550;50.472;19.744;2023-03-04T01:27:13;97909.40;;;-0.11;82.24
50302;BME280;36550;50.472;19.744;2023-03-04T01:30:03;97905.65;;;-0.11;82.04
50302;BME280;36550;50.472;19.744;2023-03-04T01:32:49;97906.16;;;-0.09;82.19
50302;BME280;36550;50.472;19.744;2023-03-04T01:35:33;97904.91;;;-0.10;82.24
50302;BME280;36550;50.472;19.744;2023-03-04T01:38:17;97901.52;;;-0.12;82.45
50302;BME280;36550;50.472;19.744;2023-03-04T01:41:01;97899.82;;;-0.14;82.49
50302;BME280;36550;50.472;19.744;2023-03-04T01:44:08;97897.90;;;-0.12;82.34
50302;BME280;36550;50.472;19.744;2023-03-04T01:47:12;97899.67;;;-0.10;82.50
50302;BME280;36550;50.472;19.744;2023-03-04T01:49:59;97900.97;;;-0.11;82.67
50302;BME280;36550;50.472;19.744;2023-03-04T01:52:44;97902.43;;;-0.07;82.57
50302;BME280;36550;50.472;19.744;2023-03-04T01:55:48;97899.13;;;-0.03;82.44
50302;BME280;36550;50.472;19.744;2023-03-04T01:58:34;97892.98;;;-0.02;82.50
50302;BME280;36550;50.472;19.744;2023-03-04T02:01:19;97892.02;;;-0.03;82.36
50302;BME280;36550;50.472;19.744;2023-03-04T02:04:04;97893.05;;;-0.01;82.33
50302;BME280;36550;50.472;19.744;2023-03-04T02:06:49;97890.32;;;-0.03;82.28
50302;BME280;36550;50.472;19.744;2023-03-04T02:09:33;97884.98;;;-0.04;82.44
50302;BME280;36550;50.472;19.744;2023-03-04T02:12:25;97877.08;;;-0.05;82.45
50302;BME280;36550;50.472;19.744;2023-03-04T02:15:09;97866.44;;;-0.05;82.46
50302;BME280;36550;50.472;19.744;2023-03-04T02:17:54;97868.63;;;-0.06;82.46
50302;BME280;36550;50.472;19.744;2023-03-04T02:20:59;97866.12;;;-0.08;82.52
50302;BME280;36550;50.472;19.744;2023-03-04T02:24:08;97855.61;;;-0.06;82.33
50302;BME280;36550;50.472;19.744;2023-03-04T02:26:59;97846.27;;;-0.04;82.34
50302;BME280;36550;50.472;19.744;2023-03-04T02:29:45;97843.09;;;-0.05;82.73
50302;BME280;36550;50.472;19.744;2023-03-04T02:32:29;97845.00;;;-0.07;82.68
50302;BME280;36550;50.472;19.744;2023-03-04T02:35:40;97847.39;;;-0.08;82.92
50302;BME280;36550;50.472;19.744;2023-03-04T02:38:31;97851.42;;;-0.09;83.05
50302;BME280;36550;50.472;19.744;2023-03-04T02:41:19;97844.52;;;-0.07;82.95
50302;BME280;36550;50.472;19.744;2023-03-04T02:44:25;97840.96;;;-0.05;82.67
50302;BME280;36550;50.472;19.744;2023-03-04T02:47:10;97833.39;;;-0.08;83.28
50302;BME280;36550;50.472;19.744;2023-03-04T02:49:57;97838.42;;;-0.13;83.25
50302;BME280;36550;50.472;19.744;2023-03-04T02:52:55;97838.85;;;-0.13;83.22
50302;BME280;36550;50.472;19.744;2023-03-04T02:55:45;97829.98;;;-0.12;83.16
50302;BME280;36550;50.472;19.744;2023-03-04T02:58:29;97831.13;;;-0.10;83.13
50302;BME280;36550;50.472;19.744;2023-03-04T03:01:14;97834.94;;;-0.11;83.10
50302;BME280;36550;50.472;19.744;2023-03-04T03:03:58;97832.40;;;-0.12;83.09
50302;BME280;36550;50.472;19.744;2023-03-04T03:06:42;97834.48;;;-0.13;82.97
50302;BME280;36550;50.472;19.744;2023-03-04T03:09:27;97833.89;;;-0.13;83.06
50302;BME280;36550;50.472;19.744;2023-03-04T03:12:32;97829.02;;;-0.14;82.98
50302;BME280;36550;50.472;19.744;2023-03-04T03:15:18;97825.52;;;-0.15;82.84
50302;BME280;36550;50.472;19.744;2023-03-04T03:18:11;97823.13;;;-0.14;82.90
50302;BME280;36550;50.472;19.744;2023-03-04T03:20:55;97819.70;;;-0.13;82.85
50302;BME280;36550;50.472;19.744;2023-03-04T03:24:00;97817.42;;;-0.15;82.99
50302;BME280;36550;50.472;19.744;2023-03-04T03:26:52;97816.96;;;-0.19;83.09
50302;BME280;36550;50.472;19.744;2023-03-04T03:29:40;97820.25;;;-0.19;82.80
50302;BME280;36550;50.472;19.744;2023-03-04T03:32:25;97824.13;;;-0.22;82.85
50302;BME280;36550;50.472;19.744;2023-03-04T03:35:31;97820.15;;;-0.25;82.84
50302;BME280;36550;50.472;19.744;2023-03-04T03:38:15;97819.83;;;-0.23;82.71
50302;BME280;36550;50.472;19.744;2023-03-04T03:41:00;97817.27;;;-0.25;82.68
50302;BME280;36550;50.472;19.744;2023-03-04T03:43:51;97815.43;;;-0.29;82.72
50302;BME280;36550;50.472;19.744;2023-03-04T03:46:35;97816.24;;;-0.34;82.85
50302;BME280;36550;50.472;19.744;2023-03-04T03:49:19;97815.58;;;-0.36;82.83
50302;BME280;36550;50.472;19.744;2023-03-04T03:52:23;97814.83;;;-0.35;82.95
50302;BME280;36550;50.472;19.744;2023-03-04T03:55:21;97809.39;;;-0.33;82.91
50302;BME280;36550;50.472;19.744;2023-03-04T03:58:25;97812.63;;;-0.30;82.86
50302;BME280;36550;50.472;19.744;2023-03-04T04:01:30;97813.02;;;-0.27;82.95
50302;BME280;36550;50.472;19.744;2023-03-04T04:04:14;97812.11;;;-0.28;83.12
50302;BME280;36550;50.472;19.744;2023-03-04T04:07:12;97802.64;;;-0.28;82.93
50302;BME280;36550;50.472;19.744;2023-03-04T04:09:56;97809.15;;;-0.29;83.11
50302;BME280;36550;50.472;19.744;2023-03-04T04:12:44;97812.19;;;-0.29;83.07
50302;BME280;36550;50.472;19.744;2023-03-04T04:15:28;97806.89;;;-0.29;83.20
50302;BME280;36550;50.472;19.744;2023-03-04T04:18:12;97806.85;;;-0.32;83.23
50302;BME280;36550;50.472;19.744;2023-03-04T04:20:59;97804.25;;;-0.35;83.65
50302;BME280;36550;50.472;19.744;2023-03-04T04:23:44;97797.52;;;-0.43;83.55
50302;BME280;36550;50.472;19.744;2023-03-04T04:26:33;97799.05;;;-0.45;83.51
50302;BME280;36550;50.472;19.744;2023-03-04T04:29:21;97798.23;;;-0.47;83.58
50302;BME280;36550;50.472;19.744;2023-03-04T04:32:08;97794.48;;;-0.46;83.64
50302;BME280;36550;50.472;19.744;2023-03-04T04:35:08;97790.05;;;-0.51;84.18
50302;BME280;36550;50.472;19.744;2023-03-04T04:37:52;97780.33;;;-0.53;83.67
50302;BME280;36550;50.472;19.744;2023-03-04T04:40:38;97780.65;;;-0.56;83.28
50302;BME280;36550;50.472;19.744;2023-03-04T04:43:22;97778.42;;;-0.58;83.17
50302;BME280;36550;50.472;19.744;2023-03-04T04:46:07;97773.02;;;-0.61;83.08
50302;BME280;36550;50.472;19.744;2023-03-04T04:48:52;97768.37;;;-0.64;83.13
50302;BME280;36550;50.472;19.744;2023-03-04T04:51:53;97767.87;;;-0.67;83.20
50302;BME280;36550;50.472;19.744;2023-03-04T04:54:37;97761.73;;;-0.70;83.26
50302;BME280;36550;50.472;19.744;2023-03-04T04:57:21;97760.96;;;-0.69;83.36
50302;BME280;36550;50.472;19.744;2023-03-04T05:00:25;97762.80;;;-0.63;83.20
50302;BME280;36550;50.472;19.744;2023-03-04T05:03:09;97758.27;;;-0.61;83.34
50302;BME280;36550;50.472;19.744;2023-03-04T05:06:13;97754.36;;;-0.61;83.32
50302;BME280;36550;50.472;19.744;2023-03-04T05:08:57;97757.54;;;-0.60;83.28
50302;BME280;36550;50.472;19.744;2023-03-04T05:11:42;97758.23;;;-0.59;83.29
50302;BME280;36550;50.472;19.744;2023-03-04T05:14:47;97747.77;;;-0.61;83.37
50302;BME280;36550;50.472;19.744;2023-03-04T05:17:51;97745.36;;;-0.61;83.26
50302;BME280;36550;50.472;19.744;2023-03-04T05:20:35;97743.30;;;-0.62;83.24
50302;BME280;36550;50.472;19.744;2023-03-04T05:23:19;97742.97;;;-0.61;83.07
50302;BME280;36550;50.472;19.744;2023-03-04T05:26:23;97738.08;;;-0.60;83.03
50302;BME280;36550;50.472;19.744;2023-03-04T05:29:09;97735.46;;;-0.60;83.00
50302;BME280;36550;50.472;19.744;2023-03-04T05:31:53;97732.67;;;-0.62;83.11
50302;BME280;36550;50.472;19.744;2023-03-04T05:34:51;97730.40;;;-0.65;83.29
50302;BME280;36550;50.472;19.744;2023-03-04T05:37:37;97718.34;;;-0.62;83.23
50302;BME280;36550;50.472;19.744;2023-03-04T05:40:36;97719.20;;;-0.57;83.09
50302;BME280;36550;50.472;19.744;2023-03-04T05:43:20;97712.30;;;-0.55;83.06
50302;BME280;36550;50.472;19.744;2023-03-04T05:46:05;97709.52;;;-0.51;83.03
50302;BME280;36550;50.472;19.744;2023-03-04T05:48:51;97709.59;;;-0.47;83.02
50302;BME280;36550;50.472;19.744;2023-03-04T05:51:35;97711.08;;;-0.48;83.05
50302;BME280;36550;50.472;19.744;2023-03-04T05:54:27;97708.98;;;-0.44;83.03
50302;BME280;36550;50.472;19.744;2023-03-04T05:57:31;97709.27;;;-0.39;82.91
50302;BME280;36550;50.472;19.744;2023-03-04T06:00:15;97708.59;;;-0.36;82.82
50302;BME280;36550;50.472;19.744;2023-03-04T06:03:01;97706.27;;;-0.32;82.67
50302;BME280;36550;50.472;19.744;2023-03-04T06:05:48;97702.10;;;-0.27;82.63
50302;BME280;36550;50.472;19.744;2023-03-04T06:08:32;97702.26;;;-0.24;82.46
50302;BME280;36550;50.472;19.744;2023-03-04T06:11:18;97704.56;;;-0.19;82.36
50302;BME280;36550;50.472;19.744;2023-03-04T06:14:02;97697.41;;;-0.12;82.21
50302;BME280;36550;50.472;19.744;2023-03-04T06:16:46;97694.04;;;-0.07;82.11
50302;BME280;36550;50.472;19.744;2023-03-04T06:19:31;97702.46;;;0.01;81.96
50302;BME280;36550;50.472;19.744;2023-03-04T06:22:20;97713.36;;;0.02;81.71
50302;BME280;36550;50.472;19.744;2023-03-04T06:25:06;97717.96;;;0.02;81.45
50302;BME280;36550;50.472;19.744;2023-03-04T06:27:52;97722.78;;;0.08;81.23
50302;BME280;36550;50.472;19.744;2023-03-04T06:30:38;97730.48;;;0.13;81.12
50302;BME280;36550;50.472;19.744;2023-03-04T06:33:22;97739.02;;;0.13;81.12
50302;BME280;36550;50.472;19.744;2023-03-04T06:36:14;97745.52;;;0.12;81.00
50302;BME280;36550;50.472;19.744;2023-03-04T06:39:02;97747.11;;;0.13;81.04
50302;BME280;36550;50.472;19.744;2023-03-04T06:41:47;97757.20;;;0.14;80.85
50302;BME280;36550;50.472;19.744;2023-03-04T06:44:47;97762.93;;;0.12;80.58
50302;BME280;36550;50.472;19.744;2023-03-04T06:47:32;97758.79;;;0.09;80.32
50302;BME280;36550;50.472;19.744;2023-03-04T06:50:16;97759.41;;;0.13;80.54
50302;BME280;36550;50.472;19.744;2023-03-04T06:53:00;97758.60;;;0.14;80.51
50302;BME280;36550;50.472;19.744;2023-03-04T06:55:46;97763.02;;;0.14;80.13
50302;BME280;36550;50.472;19.744;2023-03-04T06:58:50;97769.98;;;0.15;80.23
50302;BME280;36550;50.472;19.744;2023-03-04T07:01:34;97771.58;;;0.19;80.41
50302;BME280;36550;50.472;19.744;2023-03-04T07:04:20;97774.68;;;0.24;80.59
50302;BME280;36550;50.472;19.744;2023-03-04T07:07:06;97778.95;;;0.26;80.35
50302;BME280;36550;50.472;19.744;2023-03-04T07:09:53;97784.08;;;0.26;80.12
50302;BME280;36550;50.472;19.744;2023-03-04T07:12:37;97779.67;;;0.25;79.75
50302;BME280;36550;50.472;19.744;2023-03-04T07:15:45;97781.70;;;0.26;79.62
50302;BME280;36550;50.472;19.744;2023-03-04T07:18:29;97781.06;;;0.28;79.67
50302;BME280;36550;50.472;19.744;2023-03-04T07:21:15;97780.22;;;0.25;79.41
50302;BME280;36550;50.472;19.744;2023-03-04T07:23:59;97782.27;;;0.22;79.15
50302;BME280;36550;50.472;19.744;2023-03-04T07:26:43;97785.86;;;0.21;79.09
50302;BME280;36550;50.472;19.744;2023-03-04T07:29:27;97786.11;;;0.22;79.23
50302;BME280;36550;50.472;19.744;2023-03-04T07:32:15;97783.70;;;0.20;79.09
50302;BME280;36550;50.472;19.744;2023-03-04T07:35:01;97790.02;;;0.20;79.16
50302;BME280;36550;50.472;19.744;2023-03-04T07:37:46;97784.63;;;0.18;78.69
50302;BME280;36550;50.472;19.744;2023-03-04T07:40:30;97779.98;;;0.18;78.78
50302;BME280;36550;50.472;19.744;2023-03-04T07:43:18;97774.70;;;0.22;78.79
50302;BME280;36550;50.472;19.744;2023-03-04T07:46:02;97776.18;;;0.18;78.68
50302;BME280;36550;50.472;19.744;2023-03-04T07:48:46;97772.31;;;0.22;78.79
50302;BME280;36550;50.472;19.744;2023-03-04T07:51:31;97767.49;;;0.26;78.75
50302;BME280;36550;50.472;19.744;2023-03-04T07:54:17;97765.31;;;0.29;78.68
50302;BME280;36550;50.472;19.744;2023-03-04T07:57:03;97763.29;;;0.35;78.70
50302;BME280;36550;50.472;19.744;2023-03-04T07:59:49;97767.66;;;0.40;78.79
50302;BME280;36550;50.472;19.744;2023-03-04T08:02:48;97767.40;;;0.44;78.62
50302;BME280;36550;50.472;19.744;2023-03-04T08:05:32;97769.05;;;0.43;78.18
50302;BME280;36550;50.472;19.744;2023-03-04T08:08:17;97766.60;;;0.48;78.38
50302;BME280;36550;50.472;19.744;2023-03-04T08:11:13;97766.15;;;0.53;78.43
50302;BME280;36550;50.472;19.744;2023-03-04T08:13:58;97766.84;;;0.49;77.99
50302;BME280;36550;50.472;19.744;2023-03-04T08:16:43;97767.92;;;0.47;77.83
50302;BME280;36550;50.472;19.744;2023-03-04T08:19:28;97768.21;;;0.55;78.11
50302;BME280;36550;50.472;19.744;2023-03-04T08:22:13;97769.02;;;0.60;77.90
50302;BME280;36550;50.472;19.744;2023-03-04T08:24:57;97764.71;;;0.58;77.75
50302;BME280;36550;50.472;19.744;2023-03-04T08:27:41;97762.87;;;0.60;77.59
50302;BME280;36550;50.472;19.744;2023-03-04T08:30:26;97763.23;;;0.58;77.06
50302;BME280;36550;50.472;19.744;2023-03-04T08:33:12;97770.59;;;0.63;77.18
50302;BME280;36550;50.472;19.744;2023-03-04T08:35:56;97767.89;;;0.66;77.11
50302;BME280;36550;50.472;19.744;2023-03-04T08:38:48;97775.33;;;0.67;77.02
50302;BME280;36550;50.472;19.744;2023-03-04T08:41:33;97776.36;;;0.66;77.11
50302;BME280;36550;50.472;19.744;2023-03-04T08:44:19;97779.41;;;0.71;77.16
50302;BME280;36550;50.472;19.744;2023-03-04T08:47:04;97781.35;;;0.74;76.85
50302;BME280;36550;50.472;19.744;2023-03-04T08:49:52;97782.63;;;0.82;77.15
50302;BME280;36550;50.472;19.744;2023-03-04T08:52:36;97776.23;;;0.86;76.87
50302;BME280;36550;50.472;19.744;2023-03-04T08:55:21;97777.09;;;0.90;76.98
50302;BME280;36550;50.472;19.744;2023-03-04T08:58:06;97776.09;;;0.99;77.23
50302;BME280;36550;50.472;19.744;2023-03-04T09:00:50;97771.20;;;1.04;76.79
50302;BME280;36550;50.472;19.744;2023-03-04T09:03:35;97770.24;;;1.08;76.66
50302;BME280;36550;50.472;19.744;2023-03-04T09:06:19;97765.50;;;1.10;76.56
50302;BME280;36550;50.472;19.744;2023-03-04T09:09:04;97763.45;;;1.14;76.53
50302;BME280;36550;50.472;19.744;2023-03-04T09:11:48;97761.54;;;1.17;76.41
50302;BME280;36550;50.472;19.744;2023-03-04T09:14:33;97757.89;;;1.22;76.48
50302;BME280;36550;50.472;19.744;2023-03-04T09:17:18;97760.92;;;1.27;76.23
50302;BME280;36550;50.472;19.744;2023-03-04T09:20:03;97760.67;;;1.30;76.01
50302;BME280;36550;50.472;19.744;2023-03-04T09:23:00;97759.41;;;1.28;75.68
50302;BME280;36550;50.472;19.744;2023-03-04T09:25:45;97761.77;;;1.33;75.94
50302;BME280;36550;50.472;19.744;2023-03-04T09:28:36;97760.73;;;1.41;75.93
50302;BME280;36550;50.472;19.744;2023-03-04T09:31:24;97764.86;;;1.46;75.97
50302;BME280;36550;50.472;19.744;2023-03-04T09:34:08;97759.01;;;1.53;75.80
50302;BME280;36550;50.472;19.744;2023-03-04T09:36:52;97759.07;;;1.59;75.71
50302;BME280;36550;50.472;19.744;2023-03-04T09:39:36;97760.04;;;1.59;75.51
50302;BME280;36550;50.472;19.744;2023-03-04T09:42:29;97759.00;;;1.63;75.58
50302;BME280;36550;50.472;19.744;2023-03-04T09:45:36;97758.77;;;1.64;75.34
50302;BME280;36550;50.472;19.744;2023-03-04T09:48:46;97757.36;;;1.67;75.58
50302;BME280;36550;50.472;19.744;2023-03-04T09:51:53;97754.73;;;1.70;75.41
50302;BME280;36550;50.472;19.744;2023-03-04T10:03:57;97748.16;;;1.62;74.98
50302;BME280;36550;50.472;19.744;2023-03-04T10:06:42;97749.81;;;1.61;74.88
50302;BME280;36550;50.472;19.744;2023-03-04T10:09:50;97746.55;;;1.64;75.03
50302;BME280;36550;50.472;19.744;2023-03-04T10:12:38;97742.39;;;1.63;75.03
50302;BME280;36550;50.472;19.744;2023-03-04T10:15:41;97740.66;;;1.60;75.09
50302;BME280;36550;50.472;19.744;2023-03-04T10:18:33;97736.51;;;1.59;74.97
50302;BME280;36550;50.472;19.744;2023-03-04T10:21:32;97738.34;;;1.59;74.95
50302;BME280;36550;50.472;19.744;2023-03-04T10:24:20;97739.79;;;1.53;74.81
50302;BME280;36550;50.472;19.744;2023-03-04T10:27:10;97738.27;;;1.58;75.02
50302;BME280;36550;50.472;19.744;2023-03-04T10:29:59;97733.52;;;1.70;75.25
50302;BME280;36550;50.472;19.744;2023-03-04T10:32:46;97736.65;;;1.86;75.28
50302;BME280;36550;50.472;19.744;2023-03-04T10:35:35;97731.56;;;2.00;74.95
50302;BME280;36550;50.472;19.744;2023-03-04T10:38:20;97722.04;;;2.18;74.93
50302;BME280;36550;50.472;19.744;2023-03-04T10:41:13;97721.73;;;2.35;75.01
50302;BME280;36550;50.472;19.744;2023-03-04T10:46:44;97708.79;;;2.70;74.44
50302;BME280;36550;50.472;19.744;2023-03-04T10:49:29;97700.58;;;2.85;74.14
50302;BME280;36550;50.472;19.744;2023-03-04T10:52:18;97697.95;;;2.95;73.45
50302;BME280;36550;50.472;19.744;2023-03-04T10:55:18;97692.98;;;3.07;73.23
50302;BME280;36550;50.472;19.744;2023-03-04T10:58:04;97683.66;;;3.29;72.78
50302;BME280;36550;50.472;19.744;2023-03-04T11:01:02;97678.40;;;3.42;72.41
50302;BME280;36550;50.472;19.744;2023-03-04T11:03:47;97676.70;;;3.55;72.27
50302;BME280;36550;50.472;19.744;2023-03-04T11:06:32;97674.88;;;3.62;72.41
50302;BME280;36550;50.472;19.744;2023-03-04T11:09:24;97667.97;;;3.67;72.30
50302;BME280;36550;50.472;19.744;2023-03-04T11:12:14;97668.62;;;3.71;71.88
50302;BME280;36550;50.472;19.744;2023-03-04T11:14:58;97668.86;;;3.74;71.74
50302;BME280;36550;50.472;19.744;2023-03-04T11:17:49;97665.12;;;3.80;71.85
50302;BME280;36550;50.472;19.744;2023-03-04T11:20:36;97666.06;;;3.80;71.81
50302;BME280;36550;50.472;19.744;2023-03-04T11:26:25;97665.81;;;3.61;71.16
50302;BME280;36550;50.472;19.744;2023-03-04T11:29:17;97669.17;;;3.42;71.13
50302;BME280;36550;50.472;19.744;2023-03-04T11:32:08;97664.28;;;3.27;71.63
50302;BME280;36550;50.472;19.744;2023-03-04T11:35:20;97669.60;;;3.21;71.98
50302;BME280;36550;50.472;19.744;2023-03-04T11:40:56;97660.65;;;3.15;72.63
50302;BME280;36550;50.472;19.744;2023-03-04T11:43:45;97661.04;;;3.14;72.68
50302;BME280;36550;50.472;19.744;2023-03-04T11:52:56;97647.89;;;3.05;72.89
50302;BME280;36550;50.472;19.744;2023-03-04T12:17:08;97644.23;;;2.82;74.20
50302;BME280;36550;50.472;19.744;2023-03-04T12:23:41;97642.13;;;2.74;74.44
50302;BME280;36550;50.472;19.744;2023-03-04T12:29:57;97643.44;;;2.58;74.71
50302;BME280;36550;50.472;19.744;2023-03-04T12:32:58;97648.45;;;2.54;74.74
50302;BME280;36550;50.472;19.744;2023-03-04T12:36:34;97646.23;;;2.52;75.01
50302;BME280;36550;50.472;19.744;2023-03-04T12:48:32;97629.19;;;2.44;75.71
50302;BME280;36550;50.472;19.744;2023-03-04T12:54:33;97627.33;;;2.32;76.07
50302;BME280;36550;50.472;19.744;2023-03-04T12:57:23;97625.73;;;2.31;76.25
50302;BME280;36550;50.472;19.744;2023-03-04T13:00:33;97624.41;;;2.28;76.55
50302;BME280;36550;50.472;19.744;2023-03-04T13:09:21;97628.02;;;2.16;77.26
50302;BME280;36550;50.472;19.744;2023-03-04T13:12:20;97623.08;;;2.15;77.14
50302;BME280;36550;50.472;19.744;2023-03-04T13:18:03;97621.71;;;2.19;77.20
50302;BME280;36550;50.472;19.744;2023-03-04T13:21:21;97615.52;;;2.22;77.53
50302;BME280;36550;50.472;19.744;2023-03-04T13:24:44;97612.03;;;2.19;77.72
50302;BME280;36550;50.472;19.744;2023-03-04T13:27:47;97610.67;;;2.19;77.74
50302;BME280;36550;50.472;19.744;2023-03-04T13:36:06;97596.61;;;2.24;78.04
50302;BME280;36550;50.472;19.744;2023-03-04T13:41:59;97585.70;;;2.23;78.38
50302;BME280;36550;50.472;19.744;2023-03-04T13:47:41;97584.10;;;2.18;78.71
50302;BME280;36550;50.472;19.744;2023-03-04T13:50:40;97586.70;;;2.18;78.73
50302;BME280;36550;50.472;19.744;2023-03-04T13:53:42;97586.33;;;2.15;78.92
50302;BME280;36550;50.472;19.744;2023-03-04T13:59:55;97587.52;;;2.14;78.90
50302;BME280;36550;50.472;19.744;2023-03-04T14:02:39;97583.96;;;2.12;79.12
50302;BME280;36550;50.472;19.744;2023-03-04T14:05:23;97578.94;;;2.12;79.21
50302;BME280;36550;50.472;19.744;2023-03-04T14:08:18;97585.60;;;2.07;79.64
50302;BME280;36550;50.472;19.744;2023-03-04T14:11:02;97590.14;;;2.05;79.24
50302;BME280;36550;50.472;19.744;2023-03-04T14:13:46;97583.94;;;2.03;79.45
50302;BME280;36550;50.472;19.744;2023-03-04T14:16:34;97581.87;;;2.02;79.53
50302;BME280;36550;50.472;19.744;2023-03-04T14:19:35;97575.50;;;2.02;79.77
50302;BME280;36550;50.472;19.744;2023-03-04T14:22:32;97572.73;;;1.99;79.91
50302;BME280;36550;50.472;19.744;2023-03-04T14:25:22;97573.55;;;1.96;79.83
50302;BME280;36550;50.472;19.744;2023-03-04T14:28:16;97570.85;;;1.90;80.20
50302;BME280;36550;50.472;19.744;2023-03-04T14:31:01;97568.94;;;1.91;80.07
50302;BME280;36550;50.472;19.744;2023-03-04T14:33:48;97567.30;;;1.90;80.22
50302;BME280;36550;50.472;19.744;2023-03-04T14:36:34;97567.02;;;1.89;80.50
50302;BME280;36550;50.472;19.744;2023-03-04T14:39:19;97569.71;;;1.93;80.36
50302;BME280;36550;50.472;19.744;2023-03-04T14:42:09;97571.90;;;1.99;80.51
50302;BME280;36550;50.472;19.744;2023-03-04T14:44:54;97570.71;;;2.03;80.47
50302;BME280;36550;50.472;19.744;2023-03-04T14:47:41;97573.31;;;2.04;80.55
50302;BME280;36550;50.472;19.744;2023-03-04T14:50:28;97569.95;;;2.06;80.55
50302;BME280;36550;50.472;19.744;2023-03-04T14:53:15;97569.38;;;2.09;80.46
50302;BME280;36550;50.472;19.744;2023-03-04T14:56:06;97571.15;;;2.15;80.44
50302;BME280;36550;50.472;19.744;2023-03-04T14:58:52;97567.98;;;2.18;80.59
50302;BME280;36550;50.472;19.744;2023-03-04T15:01:36;97567.34;;;2.23;80.37
50302;BME280;36550;50.472;19.744;2023-03-04T15:04:21;97558.31;;;2.28;80.48
50302;BME280;36550;50.472;19.744;2023-03-04T15:07:15;97559.91;;;2.33;80.48
50302;BME280;36550;50.472;19.744;2023-03-04T15:10:02;97565.57;;;2.39;80.38
50302;BME280;36550;50.472;19.744;2023-03-04T15:12:52;97560.20;;;2.40;80.42
50302;BME280;36550;50.472;19.744;2023-03-04T15:15:42;97560.37;;;2.39;80.29
50302;BME280;36550;50.472;19.744;2023-03-04T15:18:27;97564.40;;;2.34;80.21
50302;BME280;36550;50.472;19.744;2023-03-04T15:24:05;97556.69;;;2.30;80.31
50302;BME280;36550;50.472;19.744;2023-03-04T15:26:50;97552.63;;;2.30;80.40
50302;BME280;36550;50.472;19.744;2023-03-04T15:29:34;97556.69;;;2.30;80.43
50302;BME280;36550;50.472;19.744;2023-03-04T15:32:18;97550.87;;;2.30;80.36
50302;BME280;36550;50.472;19.744;2023-03-04T15:35:02;97552.95;;;2.32;80.44
50302;BME280;36550;50.472;19.744;2023-03-04T15:37:47;97550.52;;;2.32;80.53
50302;BME280;36550;50.472;19.744;2023-03-04T15:40:38;97553.11;;;2.32;80.40
50302;BME280;36550;50.472;19.744;2023-03-04T15:43:24;97555.27;;;2.31;80.33
50302;BME280;36550;50.472;19.744;2023-03-04T15:46:10;97555.30;;;2.31;80.30
50302;BME280;36550;50.472;19.744;2023-03-04T15:48:54;97560.64;;;2.33;80.24
50302;BME280;36550;50.472;19.744;2023-03-04T15:51:38;97557.36;;;2.34;80.35
50302;BME280;36550;50.472;19.744;2023-03-04T15:54:22;97559.59;;;2.36;80.27
50302;BME280;36550;50.472;19.744;2023-03-04T15:57:20;97557.83;;;2.33;80.28
50302;BME280;36550;50.472;19.744;2023-03-04T16:00:07;97554.83;;;2.31;80.34
50302;BME280;36550;50.472;19.744;2023-03-04T16:02:51;97550.48;;;2.28;80.29
50302;BME280;36550;50.472;19.744;2023-03-04T16:05:36;97539.07;;;2.24;80.29
50302;BME280;36550;50.472;19.744;2023-03-04T16:08:22;97542.91;;;2.23;80.42
50302;BME280;36550;50.472;19.744;2023-03-04T16:11:15;97543.33;;;2.18;80.27
50302;BME280;36550;50.472;19.744;2023-03-04T16:13:59;97542.64;;;2.17;80.26
50302;BME280;36550;50.472;19.744;2023-03-04T16:16:43;97543.11;;;2.14;80.43
50302;BME280;36550;50.472;19.744;2023-03-04T16:19:29;97542.13;;;2.09;80.59
50302;BME280;36550;50.472;19.744;2023-03-04T16:22:14;97544.94;;;2.06;80.59
50302;BME280;36550;50.472;19.744;2023-03-04T16:25:01;97545.26;;;2.05;80.51